This is the latest recevied weather packets stored in our database for station/object DK5GB. If no packets are shown the sender has not sent any weather packets the latest 10 day(s).
| Time | Temp. | Humidity | Pressure | Rain* | Wind** | Luminosity | Snow |
|---|---|---|---|---|---|---|---|
| 1777518916 | 6.11° C | 51% | 1029.4 hPa | 0 mm | - | - | - |
| 1777518337 | 6.11° C | 51% | 1029.4 hPa | 0 mm | - | - | - |
| 1777513517 | 6.11° C | 55% | 1029.5 hPa | 0 mm | - | - | - |
| 1777509916 | 7.22° C | 53% | 1029.3 hPa | 0 mm | - | - | - |
| 1777509316 | 7.22° C | 53% | 1029.1 hPa | 0 mm | - | - | - |
| 1777508716 | 7.78° C | 50% | 1029 hPa | 0 mm | - | - | - |
| 1777508116 | 7.78° C | 52% | 1029.1 hPa | 0 mm | - | - | - |
| 1777507516 | 7.78° C | 50% | 1029 hPa | 0 mm | - | - | - |
| 1777506936 | 7.78° C | 52% | 1029.1 hPa | 0 mm | - | - | - |
| 1777506316 | 7.78° C | 52% | 1029 hPa | 0 mm | - | - | - |
| 1777505716 | 7.78° C | 54% | 1028.9 hPa | 0 mm | - | - | - |
| 1777504516 | 7.78° C | 55% | 1028.8 hPa | 0 mm | - | - | - |
| 1777503916 | 7.78° C | 58% | 1028.8 hPa | 0 mm | - | - | - |
| 1777500317 | 8.89° C | 55% | 1028.1 hPa | 0 mm | - | - | - |
| 1777498536 | 9.44° C | 54% | 1027.8 hPa | 0 mm | - | - | - |
| 1777481116 | 17.78° C | 30% | 1024.7 hPa | 0 mm | - | - | - |
| 1777480516 | 17.78° C | 29% | 1024.6 hPa | 0 mm | - | - | - |
| 1777475718 | 18.89° C | 33% | 1024.6 hPa | 0 mm | - | - | - |
| 1777470339 | 20.56° C | 35% | 1024.5 hPa | 0 mm | - | - | - |
| 1777467917 | 20.56° C | 35% | 1024.9 hPa | 0 mm | - | - | - |
| 1777461917 | 20° C | 41% | 1025.1 hPa | 0 mm | - | - | - |
| 1777461317 | 20° C | 39% | 1025.1 hPa | 0 mm | - | - | - |
| 1777460117 | 20° C | 42% | 1025.2 hPa | 0 mm | - | - | - |
| 1777459517 | 19.44° C | 43% | 1025.1 hPa | 0 mm | - | - | - |
| 1777457157 | 18.89° C | 43% | 1025.3 hPa | 0 mm | - | - | - |
* Rain latest hour (hover to see other rain measurements)
** Current wind speed in m/s (hover to see current wind gust speed)